Time;durP1;ratioP1;P1;durP2;ratioP2;P2;SDS_P1;SDS_P2;PMS_P1;PMS_P2;Temp;Humidity;BMP_temperature;BMP_pressure;BME280_temperature;BME280_humidity;BME280_pressure;Samples;Min_cycle;Max_cycle;Signal;HPM_P1;HPM_P2
2023/10/29 00:00:43;;;;;;;0.60;0.60;;;;;;;3.76;82.13;99643.75;5006963;28;20037;-70
2023/10/29 00:03:08;;;;;;;0.65;0.65;;;;;;;3.83;81.73;99638.69;5008600;28;20102;-69
2023/10/29 00:05:34;;;;;;;1.40;1.30;;;;;;;3.88;81.27;99623.31;5007290;28;20037;-70
2023/10/29 00:07:59;;;;;;;1.00;0.90;;;;;;;3.71;81.93;99631.75;5008410;28;20026;-70
2023/10/29 00:10:24;;;;;;;0.77;0.77;;;;;;;3.74;82.15;99622.38;5008697;28;20023;-70
2023/10/29 00:12:50;;;;;;;0.40;0.40;;;;;;;3.70;82.04;99618.91;5007986;28;20462;-69
2023/10/29 00:15:15;;;;;;;0.73;0.73;;;;;;;3.75;81.92;99619.81;5008758;28;20061;-69
2023/10/29 00:17:40;;;;;;;1.45;1.00;;;;;;;3.65;82.02;99611.19;5008369;28;20387;-70
2023/10/29 00:20:06;;;;;;;0.55;0.55;;;;;;;3.67;82.36;99608.63;5008132;28;20030;-70
2023/10/29 00:22:32;;;;;;;0.90;0.88;;;;;;;3.69;82.22;99604.38;5008016;28;20374;-70
2023/10/29 00:24:57;;;;;;;1.55;0.82;;;;;;;3.68;82.12;99607.78;5006702;28;20026;-69
2023/10/29 00:27:23;;;;;;;0.70;0.70;;;;;;;3.79;81.70;99605.25;5008247;28;20553;-69
2023/10/29 00:29:48;;;;;;;0.82;0.82;;;;;;;3.80;81.93;99607.00;5008013;28;20041;-69
2023/10/29 00:32:15;;;;;;;2.40;1.27;;;;;;;3.68;82.06;99603.50;5007737;28;20033;-69
2023/10/29 00:34:41;;;;;;;0.40;0.40;;;;;;;3.91;81.20;99599.38;5007967;28;20022;-69
2023/10/29 00:37:06;;;;;;;0.60;0.60;;;;;;;3.82;81.27;99598.44;5006682;28;20036;-69
2023/10/29 00:39:32;;;;;;;0.50;0.50;;;;;;;3.77;81.78;99591.59;5007931;28;20037;-70
2023/10/29 00:41:57;;;;;;;1.35;0.75;;;;;;;3.68;82.05;99590.66;5006806;28;20406;-70
2023/10/29 00:44:22;;;;;;;1.15;0.80;;;;;;;3.68;81.97;99587.22;5006323;28;20049;-69
2023/10/29 00:46:49;;;;;;;4.03;1.10;;;;;;;3.65;81.97;99574.38;5007614;28;20316;-70
2023/10/29 00:49:14;;;;;;;1.33;1.00;;;;;;;3.66;82.05;99578.69;5006261;28;20029;-69
2023/10/29 00:51:40;;;;;;;1.88;1.20;;;;;;;3.61;82.30;99588.06;5007569;28;20030;-69
2023/10/29 00:54:07;;;;;;;0.93;0.93;;;;;;;3.70;82.06;99586.41;5007353;28;20113;-70
2023/10/29 00:56:33;;;;;;;0.50;0.50;;;;;;;3.75;81.86;99583.88;5007287;28;20022;-69
2023/10/29 00:58:58;;;;;;;1.90;0.90;;;;;;;3.74;81.57;99586.44;5007395;28;20053;-70
2023/10/29 01:01:24;;;;;;;1.48;1.38;;;;;;;3.71;81.69;99577.84;5007419;28;20022;-69
2023/10/29 01:03:49;;;;;;;0.60;0.60;;;;;;;3.67;81.86;99571.00;5005876;28;20516;-70
2023/10/29 01:06:15;;;;;;;1.30;0.80;;;;;;;3.66;82.10;99558.16;5007209;28;20029;-69
2023/10/29 01:08:41;;;;;;;1.65;1.08;;;;;;;3.69;81.90;99564.13;5007055;28;20045;-70
2023/10/29 01:11:07;;;;;;;0.82;0.82;;;;;;;3.70;81.98;99565.00;5006122;28;20479;-69
2023/10/29 01:13:32;;;;;;;0.50;0.50;;;;;;;3.83;80.86;99553.94;5007073;28;20037;-69
2023/10/29 01:15:58;;;;;;;2.10;0.82;;;;;;;3.74;81.34;99550.50;5007043;28;20046;-70
2023/10/29 01:18:23;;;;;;;1.10;1.02;;;;;;;3.68;81.57;99541.88;5007107;28;20022;-69
2023/10/29 01:20:49;;;;;;;1.05;0.98;;;;;;;3.68;81.85;99536.75;5006897;28;20085;-69
2023/10/29 01:23:14;;;;;;;2.28;1.40;;;;;;;3.75;81.35;99536.78;5006681;28;20042;-70
2023/10/29 01:25:41;;;;;;;1.05;0.70;;;;;;;3.71;81.36;99541.03;5005313;28;20049;-69
2023/10/29 01:28:06;;;;;;;1.50;1.17;;;;;;;3.76;81.45;99546.19;5006801;28;20026;-70
2023/10/29 01:30:32;;;;;;;0.50;0.50;;;;;;;3.74;81.46;99530.78;5006078;28;20026;-68
2023/10/29 01:32:59;;;;;;;0.50;0.50;;;;;;;3.77;81.11;99529.97;5006734;28;20033;-69
2023/10/29 01:35:24;;;;;;;0.60;0.60;;;;;;;3.69;81.33;99524.78;5007061;28;20135;-69
2023/10/29 01:37:51;;;;;;;1.23;1.13;;;;;;;3.72;81.24;99529.94;5006925;28;20022;-69
2023/10/29 01:40:16;;;;;;;0.50;0.50;;;;;;;3.74;81.22;99519.69;5005583;28;20050;-69
2023/10/29 01:42:43;;;;;;;0.88;0.88;;;;;;;3.77;81.17;99524.81;5006687;28;20030;-70
2023/10/29 01:45:10;;;;;;;2.15;1.30;;;;;;;3.79;80.89;99517.97;5006418;28;20313;-69
2023/10/29 01:47:35;;;;;;;0.60;0.60;;;;;;;3.77;80.78;99512.00;5006628;28;20033;-69
2023/10/29 01:50:01;;;;;;;0.90;0.90;;;;;;;3.73;81.06;99516.25;5006532;28;20328;-69
2023/10/29 01:52:26;;;;;;;1.00;0.90;;;;;;;3.76;81.30;99513.69;5006715;28;20045;-70
2023/10/29 01:54:51;;;;;;;1.02;1.00;;;;;;;3.80;81.05;99486.34;5006119;28;20026;-70
2023/10/29 01:57:17;;;;;;;0.77;0.77;;;;;;;3.86;80.33;99482.91;5006446;28;20220;-69
2023/10/29 01:59:42;;;;;;;1.13;0.75;;;;;;;3.79;79.85;99474.31;5006476;28;20026;-70
2023/10/29 02:02:08;;;;;;;2.05;1.17;;;;;;;3.76;80.19;99489.72;5006145;28;20505;-69
2023/10/29 02:04:34;;;;;;;1.02;1.02;;;;;;;3.80;80.26;99492.31;5006173;28;20022;-70
2023/10/29 02:06:59;;;;;;;1.23;1.13;;;;;;;3.78;80.53;99498.28;5004743;28;20057;-71
2023/10/29 02:09:25;;;;;;;1.85;0.98;;;;;;;3.70;80.13;99480.28;5004912;28;20033;-69
2023/10/29 02:11:50;;;;;;;1.08;1.00;;;;;;;3.74;80.48;99471.72;5006101;28;20031;-69
2023/10/29 02:14:16;;;;;;;1.80;1.67;;;;;;;3.81;79.88;99472.63;5005782;28;20026;-70
2023/10/29 02:16:41;;;;;;;1.17;1.08;;;;;;;3.80;79.94;99478.63;5005891;28;20401;-69
2023/10/29 02:19:06;;;;;;;0.80;0.80;;;;;;;3.81;79.82;99482.91;5006123;28;20026;-69
2023/10/29 02:21:34;;;;;;;0.77;0.77;;;;;;;3.79;79.93;99477.75;5005644;28;20026;-69
2023/10/29 02:24:01;;;;;;;0.63;0.63;;;;;;;3.77;79.97;99469.19;5004666;28;20412;-69
2023/10/29 02:26:27;;;;;;;0.60;0.60;;;;;;;3.77;79.76;99470.91;5005549;28;20033;-67
2023/10/29 02:28:52;;;;;;;1.13;1.02;;;;;;;3.75;79.61;99480.31;5004712;28;20076;-70
2023/10/29 02:31:19;;;;;;;1.63;1.52;;;;;;;3.74;79.91;99474.31;5005699;28;20112;-70
2023/10/29 02:33:44;;;;;;;0.68;0.68;;;;;;;3.74;79.91;99464.03;5020734;28;20097;-70
2023/10/29 02:36:10;;;;;;;2.75;2.55;;;;;;;3.72;80.06;99474.28;5004296;28;20018;-70
2023/10/29 02:38:40;;;;;;;2.22;1.58;;;;;;;3.74;79.94;99468.34;5005774;28;20050;-69
2023/10/29 02:41:05;;;;;;;0.82;0.82;;;;;;;3.75;79.93;99476.03;5004240;28;20406;-70
2023/10/29 02:43:31;;;;;;;0.60;0.60;;;;;;;3.87;78.87;99458.94;5005799;28;20022;-69
2023/10/29 02:45:56;;;;;;;0.40;0.40;;;;;;;3.83;79.39;99478.63;5005422;28;20072;-69
2023/10/29 02:48:21;;;;;;;3.75;2.53;;;;;;;3.93;78.48;99464.97;5004255;28;20030;-71
2023/10/29 02:50:47;;;;;;;1.25;1.20;;;;;;;3.84;78.90;99477.78;5004139;28;20018;-69
2023/10/29 02:53:12;;;;;;;1.50;1.40;;;;;;;3.91;78.69;99474.41;5005407;28;20074;-69
2023/10/29 02:55:39;;;;;;;0.50;0.50;;;;;;;3.93;78.25;99471.84;5003479;28;20030;-69
2023/10/29 02:58:05;;;;;;;0.70;0.70;;;;;;;3.82;78.53;99477.78;5004205;28;20382;-69
2023/10/29 03:00:30;;;;;;;0.80;0.70;;;;;;;3.93;78.23;99480.38;5005587;28;20061;-69
2023/10/29 03:02:56;;;;;;;1.05;0.93;;;;;;;3.74;78.47;99447.78;5005315;28;20026;-69
2023/10/29 03:05:21;;;;;;;0.88;0.85;;;;;;;3.90;78.06;99467.53;5005494;28;20022;-70
2023/10/29 03:07:46;;;;;;;0.82;0.80;;;;;;;3.76;78.54;99471.75;5005444;28;20045;-69
2023/10/29 03:10:12;;;;;;;0.50;0.50;;;;;;;3.81;78.48;99465.78;5004024;28;20019;-69
2023/10/29 03:12:37;;;;;;;0.70;0.70;;;;;;;3.82;78.29;99461.50;5005543;28;20052;-69
2023/10/29 03:15:03;;;;;;;0.63;0.63;;;;;;;3.76;78.80;99449.50;5005314;28;20031;-69
2023/10/29 03:17:28;;;;;;;0.85;0.85;;;;;;;3.84;78.43;99455.53;5005315;28;20482;-69
2023/10/29 03:19:53;;;;;;;0.98;0.88;;;;;;;3.80;78.61;99450.38;5005408;28;20025;-69
2023/10/29 03:22:19;;;;;;;1.65;0.77;;;;;;;3.81;78.42;99452.09;5004814;28;20046;-68
2023/10/29 03:24:44;;;;;;;0.77;0.77;;;;;;;3.79;78.73;99449.50;5005096;28;20025;-68
2023/10/29 03:27:09;;;;;;;0.73;0.73;;;;;;;3.79;78.43;99440.94;5005312;28;20037;-69
2023/10/29 03:29:35;;;;;;;1.10;1.00;;;;;;;3.71;78.47;99436.66;5003813;28;20038;-69
2023/10/29 03:32:00;;;;;;;1.55;1.23;;;;;;;3.75;78.30;99436.66;5003651;28;20034;-69
2023/10/29 03:34:26;;;;;;;0.93;0.93;;;;;;;3.95;77.49;99437.59;5005169;28;20026;-69
2023/10/29 03:36:51;;;;;;;1.25;1.08;;;;;;;3.76;77.90;99431.53;5005234;28;20030;-70
2023/10/29 03:39:16;;;;;;;0.60;0.60;;;;;;;3.74;78.20;99438.38;5004035;28;20058;-70
2023/10/29 03:41:42;;;;;;;0.60;0.60;;;;;;;3.70;78.49;99431.50;5005101;28;20086;-70
2023/10/29 03:44:07;;;;;;;1.17;1.10;;;;;;;3.60;78.09;99425.47;5005050;28;20026;-70
2023/10/29 03:46:32;;;;;;;1.05;0.70;;;;;;;3.65;78.21;99428.06;5004954;28;20050;-70
2023/10/29 03:48:58;;;;;;;0.40;0.40;;;;;;;3.65;78.33;99425.50;5005129;28;20097;-70
2023/10/29 03:51:28;;;;;;;1.48;1.38;;;;;;;3.67;78.23;99429.81;5005189;28;20034;-69
2023/10/29 03:53:53;;;;;;;0.85;0.85;;;;;;;3.65;78.27;99434.06;5004998;28;20090;-70
2023/10/29 03:56:18;;;;;;;1.10;1.08;;;;;;;3.72;77.90;99435.78;5004928;28;20022;-70
2023/10/29 03:58:44;;;;;;;8.05;1.30;;;;;;;3.68;78.24;99438.34;5003900;28;20033;-70
2023/10/29 04:01:15;;;;;;;0.90;0.80;;;;;;;3.73;78.05;99441.78;5003499;28;20505;-69
2023/10/29 04:03:43;;;;;;;1.25;1.02;;;;;;;3.75;77.70;99440.09;5005146;28;20019;-69
2023/10/29 04:06:12;;;;;;;1.95;0.93;;;;;;;3.64;78.28;99452.88;5005156;28;20086;-70
2023/10/29 04:08:38;;;;;;;0.60;0.60;;;;;;;3.80;77.43;99442.69;5008529;28;20061;-70
2023/10/29 04:11:05;;;;;;;0.60;0.60;;;;;;;3.54;78.28;99422.88;5008499;28;20022;-69
2023/10/29 04:13:33;;;;;;;1.10;1.00;;;;;;;3.64;78.28;99446.88;5008329;28;20033;-69
2023/10/29 04:15:58;;;;;;;1.15;1.05;;;;;;;3.68;78.12;99443.47;5006945;28;20026;-70
2023/10/29 04:18:27;;;;;;;0.50;0.50;;;;;;;3.64;78.31;99429.78;5008485;28;20026;-69
2023/10/29 04:20:55;;;;;;;2.17;1.98;;;;;;;3.75;77.98;99429.81;5008341;28;20044;-70
2023/10/29 04:23:21;;;;;;;0.50;0.50;;;;;;;3.72;78.05;99417.81;5007786;28;20061;-71
2023/10/29 04:25:47;;;;;;;3.50;3.20;;;;;;;3.74;78.03;99433.22;5008048;28;20026;-70
2023/10/29 04:28:12;;;;;;;0.90;0.90;;;;;;;3.72;77.61;99427.25;5006867;28;20125;-70
2023/10/29 04:30:37;;;;;;;0.65;0.65;;;;;;;3.74;77.99;99417.81;5007879;28;20030;-71
2023/10/29 04:33:03;;;;;;;1.05;1.00;;;;;;;3.80;77.68;99420.41;5007886;28;20029;-69
2023/10/29 04:35:29;;;;;;;3.35;1.00;;;;;;;3.67;78.17;99427.22;5008016;28;20437;-70
2023/10/29 04:37:55;;;;;;;1.48;1.15;;;;;;;3.60;78.28;99397.25;5008034;28;20053;-70
2023/10/29 04:40:20;;;;;;;0.60;0.60;;;;;;;3.64;78.29;99403.25;5007939;28;20069;-70
2023/10/29 04:42:46;;;;;;;0.80;0.80;;;;;;;3.74;78.20;99422.13;5007949;28;20018;-71
2023/10/29 04:45:11;;;;;;;1.70;1.60;;;;;;;3.64;78.56;99409.25;5006299;28;20014;-70
2023/10/29 04:47:37;;;;;;;1.25;1.10;;;;;;;3.65;78.57;99408.38;5006444;28;20034;-70
2023/10/29 04:50:02;;;;;;;0.73;0.73;;;;;;;3.83;77.78;99386.19;5007777;28;20094;-70
2023/10/29 04:52:28;;;;;;;0.57;0.57;;;;;;;3.83;77.70;99392.16;5007789;28;20037;-70
2023/10/29 04:54:53;;;;;;;0.82;0.82;;;;;;;3.71;78.33;99393.00;5007484;28;20030;-70
2023/10/29 04:57:20;;;;;;;0.80;0.80;;;;;;;3.82;78.29;99382.75;5006346;28;20026;-70
2023/10/29 04:59:45;;;;;;;0.82;0.73;;;;;;;3.74;78.69;99386.19;5006106;28;20028;-69
2023/10/29 05:02:11;;;;;;;0.50;0.50;;;;;;;3.76;78.56;99379.31;5007323;28;20065;-70
2023/10/29 05:04:36;;;;;;;1.58;1.50;;;;;;;3.64;78.72;99362.19;5007324;28;20022;-70
2023/10/29 05:07:02;;;;;;;1.17;1.05;;;;;;;3.66;78.93;99363.06;5007358;28;20030;-70
2023/10/29 05:09:27;;;;;;;1.55;1.33;;;;;;;3.79;78.12;99361.34;5006069;28;20518;-70
2023/10/29 05:11:52;;;;;;;0.65;0.65;;;;;;;3.79;78.59;99364.78;5007228;28;20030;-70
2023/10/29 05:14:18;;;;;;;0.55;0.55;;;;;;;3.82;78.29;99354.53;5006910;28;20053;-69
2023/10/29 05:16:43;;;;;;;0.80;0.80;;;;;;;3.80;78.35;99347.69;5007180;28;20112;-70
2023/10/29 05:19:09;;;;;;;0.63;0.60;;;;;;;3.61;78.72;99323.69;5006369;28;20030;-69
2023/10/29 05:21:34;;;;;;;0.90;0.90;;;;;;;3.71;78.71;99320.25;5006826;28;20040;-69
2023/10/29 05:23:59;;;;;;;1.70;0.70;;;;;;;3.77;78.75;99339.97;5006758;28;20079;-70
2023/10/29 05:26:25;;;;;;;0.82;0.80;;;;;;;3.74;78.95;99319.44;5006989;28;20086;-70
2023/10/29 05:28:50;;;;;;;0.70;0.70;;;;;;;3.69;79.06;99312.56;5006986;28;20030;-70
2023/10/29 05:31:16;;;;;;;1.25;0.70;;;;;;;3.72;78.98;99315.13;5006700;28;20029;-69
2023/10/29 05:33:41;;;;;;;2.38;1.15;;;;;;;3.71;78.96;99298.03;5006907;28;20026;-69
2023/10/29 05:36:07;;;;;;;2.97;1.05;;;;;;;3.87;78.57;99284.34;5007223;28;20035;-69
2023/10/29 05:38:32;;;;;;;1.45;1.35;;;;;;;3.79;78.67;99294.59;5007060;28;20102;-70
2023/10/29 05:40:57;;;;;;;2.38;1.15;;;;;;;3.71;78.53;99269.78;5006930;28;20310;-69
2023/10/29 05:43:23;;;;;;;1.98;1.88;;;;;;;3.86;78.43;99280.94;5006454;28;20450;-70
2023/10/29 05:45:48;;;;;;;0.40;0.40;;;;;;;3.91;78.25;99274.09;5005438;28;20049;-69
2023/10/29 05:48:14;;;;;;;0.73;0.73;;;;;;;3.97;77.98;99294.63;5006792;28;20022;-69
2023/10/29 05:50:39;;;;;;;1.75;0.90;;;;;;;4.04;77.61;99256.94;5005138;28;20030;-67
2023/10/29 05:53:05;;;;;;;0.98;0.75;;;;;;;3.85;78.24;99258.66;5006393;28;20042;-68
2023/10/29 05:55:30;;;;;;;1.08;1.00;;;;;;;3.72;78.78;99250.94;5006540;28;20331;-68
2023/10/29 05:57:56;;;;;;;0.77;0.73;;;;;;;3.69;79.11;99239.84;5005097;28;20022;-69
2023/10/29 06:00:22;;;;;;;1.45;1.35;;;;;;;3.64;79.47;99231.28;5005168;28;20030;-69
2023/10/29 06:02:47;;;;;;;0.50;0.50;;;;;;;3.72;79.29;99224.44;5006251;28;20502;-71
2023/10/29 06:05:12;;;;;;;0.75;0.75;;;;;;;4.02;78.06;99207.31;5006444;28;20090;-68
2023/10/29 06:07:42;;;;;;;0.50;0.50;;;;;;;3.93;78.11;99227.88;5006333;28;20049;-68
2023/10/29 06:10:08;;;;;;;0.85;0.73;;;;;;;3.75;79.06;99241.56;5005250;28;20052;-71
2023/10/29 06:12:34;;;;;;;0.63;0.63;;;;;;;3.62;79.71;99235.53;5006368;28;20022;-69
2023/10/29 06:14:59;;;;;;;1.00;0.93;;;;;;;3.63;79.75;99250.94;5005924;28;20057;-72
2023/10/29 06:17:24;;;;;;;1.40;0.82;;;;;;;3.80;79.05;99242.41;5006116;28;20041;-68
2023/10/29 06:19:50;;;;;;;0.70;0.70;;;;;;;3.77;78.94;99253.53;5005977;28;20037;-72
2023/10/29 06:22:15;;;;;;;0.95;0.93;;;;;;;3.99;78.67;99227.88;5005806;28;20471;-70
2023/10/29 06:24:40;;;;;;;1.23;1.05;;;;;;;3.81;78.86;99213.31;5004484;28;20022;-70
2023/10/29 06:27:06;;;;;;;4.35;1.30;;;;;;;3.72;79.15;99250.94;5005903;28;20037;-70
2023/10/29 06:29:31;;;;;;;0.60;0.60;;;;;;;3.85;79.18;99240.69;5005836;28;20030;-70
2023/10/29 06:31:56;;;;;;;1.45;0.80;;;;;;;3.81;78.95;99209.03;5005609;28;20050;-70
2023/10/29 06:34:22;;;;;;;0.80;0.80;;;;;;;3.76;79.29;99209.88;5004324;28;20454;-70
2023/10/29 06:36:47;;;;;;;0.73;0.60;;;;;;;3.95;78.90;99213.31;5005528;28;20026;-69
2023/10/29 06:39:13;;;;;;;0.63;0.63;;;;;;;3.80;79.36;99206.47;5004346;28;20117;-68
2023/10/29 06:41:38;;;;;;;1.42;1.33;;;;;;;3.83;78.94;99232.97;5004431;28;20030;-72
2023/10/29 06:44:04;;;;;;;0.50;0.50;;;;;;;3.72;79.48;99214.19;5005527;28;20026;-69
2023/10/29 06:46:30;;;;;;;1.88;1.17;;;;;;;3.78;79.48;99215.88;5005155;28;20022;-69
2023/10/29 06:48:56;;;;;;;1.10;0.98;;;;;;;3.81;79.60;99226.16;5005705;28;20029;-69
2023/10/29 06:51:21;;;;;;;3.22;2.92;;;;;;;3.75;79.64;99229.56;5005507;28;20026;-69
2023/10/29 06:53:46;;;;;;;0.82;0.80;;;;;;;3.72;79.92;99222.72;5005326;28;20022;-70
2023/10/29 06:56:12;;;;;;;0.90;0.90;;;;;;;3.86;79.29;99227.00;5005510;28;20072;-69
2023/10/29 06:58:38;;;;;;;1.35;1.00;;;;;;;3.71;79.97;99223.59;5005431;28;20035;-70
2023/10/29 07:01:11;;;;;;;0.68;0.65;;;;;;;3.81;79.65;99213.31;5005578;28;20106;-68
2023/10/29 07:03:38;;;;;;;0.77;0.77;;;;;;;3.81;79.82;99223.56;5005287;28;20045;-70
2023/10/29 07:06:08;;;;;;;0.90;0.80;;;;;;;3.83;79.83;99222.72;5005312;28;20084;-69
2023/10/29 07:08:35;;;;;;;1.50;0.77;;;;;;;3.86;80.19;99211.59;5004445;28;20015;-70
2023/10/29 07:11:02;;;;;;;0.63;0.63;;;;;;;3.87;79.96;99208.16;5005389;28;20026;-68
2023/10/29 07:13:28;;;;;;;0.57;0.57;;;;;;;3.93;79.46;99200.47;5003577;28;20442;-70
2023/10/29 07:15:54;;;;;;;0.60;0.60;;;;;;;3.87;79.87;99203.03;5004122;28;20026;-70
2023/10/29 07:18:19;;;;;;;1.15;0.80;;;;;;;4.07;79.08;99192.72;5004995;28;20026;-69
2023/10/29 07:20:45;;;;;;;1.48;0.93;;;;;;;3.88;79.89;99194.50;5005211;28;20025;-71
2023/10/29 07:23:11;;;;;;;1.30;1.20;;;;;;;3.96;79.86;99212.47;5005103;28;20046;-69
2023/10/29 07:25:36;;;;;;;1.67;1.33;;;;;;;3.99;79.74;99202.19;5005027;28;20049;-69
2023/10/29 07:28:01;;;;;;;0.40;0.40;;;;;;;4.09;79.49;99218.41;5005132;28;20033;-68
2023/10/29 07:30:27;;;;;;;3.35;0.98;;;;;;;4.13;79.22;99202.16;5003754;28;20049;-70
2023/10/29 07:32:53;;;;;;;0.60;0.60;;;;;;;4.45;77.53;99201.25;5004900;28;20031;-69
2023/10/29 07:35:18;;;;;;;2.50;1.95;;;;;;;4.12;78.78;99197.88;5004853;28;20101;-68
2023/10/29 07:37:43;;;;;;;0.55;0.47;;;;;;;4.27;78.38;99201.25;5003654;28;20073;-70
2023/10/29 07:40:09;;;;;;;0.55;0.55;;;;;;;4.31;78.57;99205.56;5004815;28;20025;-69
2023/10/29 07:42:34;;;;;;;0.50;0.50;;;;;;;4.37;77.95;99215.81;5007271;28;20085;-69
2023/10/29 07:45:00;;;;;;;0.50;0.50;;;;;;;4.45;77.73;99185.81;5008532;28;20026;-69
2023/10/29 07:47:25;;;;;;;0.50;0.50;;;;;;;4.39;78.00;99197.84;5008543;28;20078;-69
2023/10/29 07:49:50;;;;;;;1.80;1.23;;;;;;;4.41;77.87;99181.53;5008715;28;20022;-69
2023/10/29 07:52:16;;;;;;;1.85;1.52;;;;;;;4.26;78.47;99179.88;5008621;28;20080;-69
2023/10/29 07:54:42;;;;;;;0.70;0.70;;;;;;;4.38;78.32;99181.53;5008463;28;20124;-70
2023/10/29 07:57:07;;;;;;;0.60;0.60;;;;;;;4.42;78.21;99175.56;5023850;28;20026;-69
2023/10/29 07:59:34;;;;;;;1.38;1.00;;;;;;;4.49;77.54;99201.25;5008584;28;20328;-71
2023/10/29 08:01:59;;;;;;;3.10;0.80;;;;;;;4.53;76.82;99156.66;5008238;28;20034;-70
2023/10/29 08:04:26;;;;;;;1.85;0.98;;;;;;;4.44;77.61;99158.41;5008566;28;20018;-68
2023/10/29 08:06:51;;;;;;;0.82;0.75;;;;;;;4.63;76.74;99142.06;5007037;28;20379;-68
2023/10/29 08:09:16;;;;;;;0.50;0.50;;;;;;;4.56;76.91;99148.94;5007314;28;20022;-69
2023/10/29 08:11:42;;;;;;;1.20;1.10;;;;;;;4.45;77.65;99143.84;5007218;28;20054;-69
2023/10/29 08:14:07;;;;;;;0.82;0.80;;;;;;;4.70;76.59;99131.72;5008104;28;20054;-69
2023/10/29 08:16:32;;;;;;;1.92;1.77;;;;;;;4.65;76.37;99141.19;5008112;28;20027;-67
2023/10/29 08:18:58;;;;;;;0.60;0.60;;;;;;;4.59;76.59;99116.38;5007006;28;20073;-70
2023/10/29 08:21:26;;;;;;;0.73;0.73;;;;;;;4.73;76.30;99127.44;5006780;28;20462;-69
2023/10/29 08:23:51;;;;;;;1.95;1.25;;;;;;;4.85;75.32;99114.53;5007012;28;20467;-70
2023/10/29 08:26:17;;;;;;;0.70;0.70;;;;;;;4.86;75.33;99110.25;5006664;28;20310;-71
2023/10/29 08:28:42;;;;;;;0.43;0.43;;;;;;;4.82;75.64;99102.50;5008464;28;20064;-71
2023/10/29 08:31:10;;;;;;;0.77;0.77;;;;;;;4.84;75.44;99107.66;5006903;28;20026;-70
2023/10/29 08:33:38;;;;;;;0.70;0.70;;;;;;;4.56;76.47;99100.09;5006542;28;20023;-70
2023/10/29 08:36:06;;;;;;;0.60;0.60;;;;;;;4.61;76.50;99088.09;5008078;28;20029;-71
2023/10/29 08:38:35;;;;;;;1.23;1.13;;;;;;;4.65;76.67;99076.06;5008206;28;20033;-71
2023/10/29 08:41:01;;;;;;;0.82;0.82;;;;;;;4.66;76.65;99076.06;5006753;28;20022;-70
2023/10/29 08:43:26;;;;;;;0.60;0.60;;;;;;;4.60;76.82;99063.22;5007724;28;20015;-71
2023/10/29 08:45:51;;;;;;;0.95;0.93;;;;;;;4.71;76.32;99060.59;5007796;28;20077;-70
2023/10/29 08:48:20;;;;;;;1.00;0.80;;;;;;;4.84;76.15;99056.22;5007788;28;20121;-69
2023/10/29 08:50:45;;;;;;;0.93;0.60;;;;;;;4.73;76.32;99047.75;5007676;28;20018;-74
2023/10/29 08:53:10;;;;;;;0.75;0.75;;;;;;;4.61;77.00;99041.81;5006367;28;20026;-73
2023/10/29 08:55:36;;;;;;;0.50;0.50;;;;;;;4.70;76.81;99059.75;5007733;28;20033;-73
2023/10/29 08:58:01;;;;;;;1.08;0.80;;;;;;;4.62;77.00;99043.50;5007615;28;20022;-73
2023/10/29 09:00:26;;;;;;;1.42;1.27;;;;;;;4.93;75.75;99045.03;5007906;28;20027;-73
2023/10/29 09:02:52;;;;;;;0.65;0.65;;;;;;;4.78;76.11;99025.41;4990049;28;20022;-72
2023/10/29 09:05:18;;;;;;;0.80;0.80;;;;;;;4.52;77.47;99040.13;5007350;28;20049;-72
2023/10/29 09:07:43;;;;;;;4.03;0.93;;;;;;;4.72;76.93;99026.31;5007573;28;20058;-71
2023/10/29 09:10:09;;;;;;;1.15;0.82;;;;;;;4.73;77.00;99028.00;5005979;28;20029;-73
2023/10/29 09:12:35;;;;;;;0.98;0.98;;;;;;;4.47;78.19;99006.75;5022431;28;20048;-70
2023/10/29 09:15:01;;;;;;;0.80;0.80;;;;;;;4.56;77.77;98987.00;5007070;28;20030;-70
2023/10/29 09:17:27;;;;;;;0.60;0.60;;;;;;;4.50;78.13;99000.75;5007172;28;20027;-71
2023/10/29 09:19:52;;;;;;;0.70;0.70;;;;;;;4.61;78.06;99020.38;5007419;28;20022;-70
2023/10/29 09:22:18;;;;;;;1.30;1.20;;;;;;;4.74;77.71;98992.88;5007028;28;20085;-69
2023/10/29 09:24:44;;;;;;;0.75;0.75;;;;;;;4.52;78.89;98986.16;5005783;28;20030;-70
2023/10/29 09:27:09;;;;;;;0.60;0.60;;;;;;;4.42;78.86;98980.25;5005764;28;20026;-70
2023/10/29 09:29:36;;;;;;;1.27;0.98;;;;;;;4.56;79.05;99010.13;5007054;28;20104;-68
2023/10/29 09:32:04;;;;;;;3.88;1.85;;;;;;;4.34;79.96;98966.59;5006979;28;20018;-71
2023/10/29 09:34:32;;;;;;;0.50;0.50;;;;;;;4.61;78.70;98956.97;5005566;28;20390;-68
2023/10/29 09:36:57;;;;;;;0.90;0.88;;;;;;;4.62;78.92;98962.97;5007106;28;20049;-69
2023/10/29 09:39:22;;;;;;;1.05;0.77;;;;;;;4.39;79.93;98966.56;5007028;28;20026;-69
2023/10/29 09:41:51;;;;;;;1.52;0.98;;;;;;;4.49;80.02;98957.06;5006764;28;20123;-69
2023/10/29 09:44:19;;;;;;;4.50;0.93;;;;;;;4.52;80.08;98944.19;5006861;28;20014;-67
2023/10/29 09:46:45;;;;;;;1.17;0.85;;;;;;;4.45;80.43;98939.09;5006676;28;20026;-70
2023/10/29 09:49:13;;;;;;;0.73;0.70;;;;;;;4.26;81.18;98945.22;5006817;28;20066;-69
2023/10/29 09:51:40;;;;;;;0.60;0.60;;;;;;;4.51;81.03;98955.31;5006673;28;20153;-71
2023/10/29 09:54:06;;;;;;;0.88;0.88;;;;;;;4.50;81.09;98951.91;5006489;28;20041;-69
2023/10/29 09:56:33;;;;;;;0.98;0.88;;;;;;;4.59;80.75;98930.44;5005494;28;20018;-68
2023/10/29 09:58:59;;;;;;;0.77;0.77;;;;;;;4.31;81.46;98930.63;5006695;28;20040;-72
2023/10/29 10:01:25;;;;;;;0.77;0.77;;;;;;;4.27;82.17;98914.38;5005741;28;20030;-71
2023/10/29 10:03:50;;;;;;;1.55;1.45;;;;;;;4.13;82.82;98913.59;5006191;28;20018;-69
2023/10/29 10:06:15;;;;;;;0.60;0.60;;;;;;;4.31;82.58;98916.06;5006192;28;20427;-70
2023/10/29 10:08:41;;;;;;;0.80;0.80;;;;;;;4.20;82.74;98885.31;5005123;28;20026;-68
2023/10/29 10:11:22;;;;;;;0.70;0.70;;;;;;;4.31;82.83;98897.22;5005106;28;20026;-71
2023/10/29 10:13:48;;;;;;;0.50;0.50;;;;;;;4.40;82.86;98910.00;5006259;28;20029;-70
2023/10/29 10:16:15;;;;;;;0.85;0.80;;;;;;;4.17;84.06;98923.03;5004994;28;20066;-72
2023/10/29 10:18:47;;;;;;;0.88;0.77;;;;;;;4.33;83.69;98913.47;5006365;28;20029;-73
2023/10/29 10:21:12;;;;;;;0.50;0.50;;;;;;;4.36;83.77;98907.47;5004836;28;20033;-71
2023/10/29 10:23:55;;;;;;;0.50;0.50;;;;;;;4.16;84.60;98891.34;5005925;28;20082;-72
2023/10/29 10:26:27;;;;;;;1.58;1.00;;;;;;;4.32;84.93;98901.50;5006297;28;20038;-71
2023/10/29 10:29:00;;;;;;;1.33;0.93;;;;;;;4.41;84.29;98908.31;5006058;28;20050;-72
2023/10/29 10:31:27;;;;;;;1.20;1.10;;;;;;;4.20;85.14;98897.31;5006110;28;20032;-70
2023/10/29 10:34:18;;;;;;;1.08;1.08;;;;;;;4.31;85.66;98902.38;5005766;28;20023;-72
2023/10/29 10:36:50;;;;;;;1.10;1.00;;;;;;;4.22;85.58;98891.28;4988510;28;20033;-71
2023/10/29 10:39:20;;;;;;;0.77;0.77;;;;;;;4.14;86.44;98893.06;5005936;28;20536;-72
2023/10/29 10:41:47;;;;;;;0.60;0.60;;;;;;;4.17;86.44;98869.91;5006029;28;20053;-71
2023/10/29 10:44:18;;;;;;;2.92;1.63;;;;;;;4.27;86.87;98867.28;5005754;28;20029;-72
2023/10/29 10:46:52;;;;;;;0.80;0.80;;;;;;;4.10;87.25;98888.81;4988236;28;20053;-70
2023/10/29 10:49:19;;;;;;;2.20;1.40;;;;;;;4.27;87.07;98903.25;5004316;28;20034;-72
2023/10/29 10:51:58;;;;;;;0.60;0.60;;;;;;;4.12;88.23;98881.94;5005698;28;20033;-73
2023/10/29 10:54:25;;;;;;;0.63;0.63;;;;;;;3.97;88.88;98870.91;5005609;28;20087;-72
2023/10/29 10:56:52;;;;;;;1.20;1.15;;;;;;;4.09;88.95;98862.25;5005682;28;20072;-71
2023/10/29 10:59:19;;;;;;;0.80;0.70;;;;;;;4.43;87.53;98874.00;5005505;28;20033;-72
2023/10/29 11:01:45;;;;;;;0.90;0.77;;;;;;;4.15;88.63;98879.38;5004258;28;20465;-72
2023/10/29 11:04:11;;;;;;;1.13;0.75;;;;;;;4.14;89.21;98859.66;5005599;28;20122;-72
2023/10/29 11:06:41;;;;;;;0.80;0.80;;;;;;;4.14;89.39;98867.38;5004377;28;20034;-72
2023/10/29 11:09:12;;;;;;;0.52;0.52;;;;;;;4.14;89.99;98836.53;5005571;28;20049;-71
2023/10/29 11:11:49;;;;;;;0.80;0.80;;;;;;;4.03;90.67;98848.59;5005645;28;20487;-71
2023/10/29 11:14:19;;;;;;;0.40;0.40;;;;;;;4.64;88.43;98814.72;5005367;28;20461;-72
2023/10/29 11:16:45;;;;;;;0.40;0.40;;;;;;;4.20;89.87;98823.66;5006138;28;20054;-72
2023/10/29 11:19:42;;;;;;;0.40;0.40;;;;;;;4.22;90.91;98814.22;5008313;28;20032;-73
2023/10/29 11:22:13;;;;;;;0.40;0.40;;;;;;;4.27;90.80;98810.75;4991630;28;20109;-71
2023/10/29 11:24:38;;;;;;;0.50;0.50;;;;;;;4.33;89.85;98811.56;5009350;28;20022;-71
2023/10/29 11:27:52;;;;;;;0.75;0.75;;;;;;;4.26;91.03;98804.78;5009319;28;20026;-72
2023/10/29 11:30:22;;;;;;;0.43;0.43;;;;;;;4.32;91.62;98817.56;4991680;28;20030;-70
2023/10/29 11:33:05;;;;;;;0.40;0.40;;;;;;;4.26;91.38;98784.22;5009207;28;20022;-71
2023/10/29 11:35:31;;;;;;;0.40;0.40;;;;;;;4.05;92.46;98769.84;5009231;28;20378;-72
2023/10/29 11:37:59;;;;;;;0.40;0.40;;;;;;;4.17;92.53;98758.63;5009538;28;20035;-71